Time;durP1;ratioP1;P1;durP2;ratioP2;P2;SDS_P1;SDS_P2;PMS_P1;PMS_P2;Temp;Humidity;BMP_temperature;BMP_pressure;BME280_temperature;BME280_humidity;BME280_pressure;Samples;Min_cycle;Max_cycle;Signal;HPM_P1;HPM_P2
2022/09/22 00:01:08;;;;;;;;;8.00;7.00;;;;;14.78;97.47;101986.50;5076289;28;45396;-69
2022/09/22 00:03:35;;;;;;;;;7.67;6.00;;;;;14.78;98.23;101991.81;5076011;28;45470;-68
2022/09/22 00:06:28;;;;;;;;;9.00;6.33;;;;;14.77;98.24;101990.91;5074157;28;45632;-68
2022/09/22 00:08:56;;;;;;;;;7.00;7.00;;;;;14.75;98.62;101991.75;5071835;28;46146;-68
2022/09/22 00:11:27;;;;;;;;;7.00;5.33;;;;;14.69;98.41;101987.25;5053836;28;45662;-69
2022/09/22 00:14:01;;;;;;;;;9.00;7.33;;;;;14.67;98.99;101987.25;5055520;28;45459;-69
2022/09/22 00:16:30;;;;;;;;;7.00;7.00;;;;;14.65;99.07;101989.00;5069210;28;45470;-69
2022/09/22 00:18:55;;;;;;;;;6.67;6.67;;;;;14.66;99.28;101995.22;5073532;28;47562;-68
2022/09/22 00:21:22;;;;;;;;;7.67;7.00;;;;;14.65;99.30;102004.97;5067598;28;72664;-70
2022/09/22 00:23:48;;;;;;;;;5.67;5.67;;;;;14.59;99.58;101994.22;5070794;27;45320;-68
2022/09/22 00:26:17;;;;;;;;;9.00;5.67;;;;;14.59;99.69;101999.53;5060883;28;45293;-69
2022/09/22 00:28:44;;;;;;;;;6.00;6.00;;;;;14.56;100.00;101998.63;5063840;28;45780;-69
2022/09/22 00:31:24;;;;;;;;;6.33;6.33;;;;;14.54;99.99;101995.03;5074701;28;45385;-69
2022/09/22 00:33:51;;;;;;;;;8.33;7.00;;;;;14.53;100.00;101996.81;5075634;28;45720;-69
2022/09/22 00:36:17;;;;;;;;;7.00;7.00;;;;;14.50;100.00;101988.81;5051164;28;45523;-68
2022/09/22 00:38:43;;;;;;;;;8.67;6.33;;;;;14.51;100.00;101995.00;5054092;28;47231;-68
2022/09/22 00:41:15;;;;;;;;;7.33;7.33;;;;;14.43;100.00;101989.53;5068618;28;54624;-69
2022/09/22 00:43:42;;;;;;;;;8.67;7.67;;;;;14.45;100.00;101992.25;5066567;28;45427;-68
2022/09/22 00:46:08;;;;;;;;;5.33;5.33;;;;;14.45;100.00;101992.25;5076635;28;45494;-69
2022/09/22 00:48:36;;;;;;;;;6.00;6.00;;;;;14.37;100.00;101982.38;5072376;28;45723;-69
2022/09/22 00:51:05;;;;;;;;;7.00;7.00;;;;;14.42;100.00;101982.44;5051715;28;45433;-68
2022/09/22 00:53:30;;;;;;;;;6.75;6.75;;;;;14.41;100.00;101999.25;5056465;28;45252;-69
2022/09/22 00:56:13;;;;;;;;;8.00;8.00;;;;;14.39;100.00;101988.63;5057719;28;45451;-69
2022/09/22 00:58:45;;;;;;;;;8.67;7.67;;;;;14.37;100.00;101992.13;5056234;28;45829;-69
2022/09/22 01:01:11;;;;;;;;;6.67;6.00;;;;;14.34;100.00;101992.97;5057282;28;45452;-68
2022/09/22 01:03:39;;;;;;;;;8.00;7.33;;;;;14.33;100.00;101990.31;5074484;28;52116;-69
2022/09/22 01:06:08;;;;;;;;;8.00;6.00;;;;;14.28;100.00;101987.59;5056106;28;45493;-68
2022/09/22 01:08:33;;;;;;;;;7.67;6.67;;;;;14.28;100.00;101987.59;5056904;28;47818;-68
2022/09/22 01:10:59;;;;;;;;;8.00;6.00;;;;;14.27;100.00;101984.88;5052504;28;73014;-69
2022/09/22 01:13:43;;;;;;;;;11.00;7.00;;;;;14.26;100.00;101983.09;5051224;28;68714;-68
2022/09/22 01:16:29;;;;;;;;;7.00;6.67;;;;;14.22;100.00;101968.91;5068030;28;45368;-69
2022/09/22 01:19:21;;;;;;;;;7.00;7.00;;;;;14.23;100.00;101972.44;5047572;28;46099;-69
2022/09/22 01:22:11;;;;;;;;;11.00;8.00;;;;;14.22;100.00;101967.97;5073713;28;45816;-69
2022/09/22 01:24:45;;;;;;;;;8.00;8.00;;;;;14.19;100.00;101974.16;5072824;28;45504;-68
2022/09/22 01:27:35;;;;;;;;;10.25;10.25;;;;;14.19;100.00;101978.59;5065606;28;45543;-68
2022/09/22 01:30:18;;;;;;;;;10.67;9.33;;;;;14.16;100.00;101969.69;5072582;28;46692;-69
2022/09/22 01:33:06;;;;;;;;;7.75;7.75;;;;;14.16;100.00;101967.03;5074070;28;45447;-69
2022/09/22 01:35:41;;;;;;;;;10.50;7.50;;;;;14.14;100.00;101967.88;5050794;28;45540;-69
2022/09/22 01:38:16;;;;;;;;;9.25;9.25;;;;;14.13;100.00;101977.63;5070250;28;45373;-69
2022/09/22 01:40:57;;;;;;;;;12.33;7.00;;;;;14.11;100.00;101971.41;5055661;28;45754;-68
2022/09/22 01:43:35;;;;;;;;;8.33;8.33;;;;;14.11;100.00;101975.78;5055334;28;47331;-68
2022/09/22 01:46:03;;;;;;;;;10.00;8.33;;;;;14.12;100.00;101974.94;5058659;28;45581;-69
2022/09/22 01:48:30;;;;;;;;;11.33;7.00;;;;;14.10;100.00;101972.25;5076910;28;45365;-68
2022/09/22 01:51:08;;;;;;;;;13.00;9.50;;;;;14.07;100.00;101968.69;5076014;28;59505;-69
2022/09/22 01:53:38;;;;;;;;;12.00;9.67;;;;;14.09;100.00;101974.91;5059335;28;45533;-69
2022/09/22 01:56:06;;;;;;;;;10.00;7.67;;;;;14.03;100.00;101973.03;5060310;28;45533;-68
2022/09/22 01:58:36;;;;;;;;;9.33;7.67;;;;;14.03;100.00;101972.16;5076982;28;45181;-68
2022/09/22 02:01:07;;;;;;;;;17.00;11.50;;;;;14.03;100.00;101970.38;5075738;28;46641;-69
2022/09/22 02:03:37;;;;;;;;;9.25;8.00;;;;;14.03;100.00;101983.66;5066241;28;45724;-68
2022/09/22 02:06:17;;;;;;;;;7.75;7.50;;;;;13.96;100.00;101960.56;5058798;28;45521;-69
2022/09/22 02:09:02;;;;;;;;;12.25;10.50;;;;;13.96;100.00;101968.53;5051474;28;45345;-68
2022/09/22 02:11:27;;;;;;;;;12.00;9.50;;;;;13.96;100.00;101967.63;5076324;28;45738;-69
2022/09/22 02:13:52;;;;;;;;;16.75;10.75;;;;;13.95;100.00;101963.16;5074370;28;71741;-69
2022/09/22 02:16:21;;;;;;;;;8.25;8.00;;;;;13.89;100.00;101958.66;5056885;28;45443;-68
2022/09/22 02:19:10;;;;;;;;;11.00;8.67;;;;;13.89;100.00;101956.88;5058154;28;45378;-68
2022/09/22 02:21:39;;;;;;;;;12.00;9.50;;;;;13.88;100.00;101952.44;5070286;28;46975;-68
2022/09/22 02:24:04;;;;;;;;;12.50;10.50;;;;;13.83;100.00;101951.47;5049418;28;45245;-69
2022/09/22 02:26:33;;;;;;;;;8.25;8.25;;;;;13.82;100.00;101951.47;5065896;28;57782;-68
2022/09/22 02:29:02;;;;;;;;;12.25;9.25;;;;;13.82;100.00;101944.41;5052691;28;45420;-68
2022/09/22 02:31:31;;;;;;;;;14.75;9.75;;;;;13.78;100.00;101946.97;5053695;28;47661;-68
2022/09/22 02:33:57;;;;;;;;;10.75;8.50;;;;;13.77;100.00;101942.53;5073462;28;45591;-69
2022/09/22 02:36:50;;;;;;;;;12.25;9.25;;;;;13.73;100.00;101944.25;5049696;28;56340;-68
2022/09/22 02:39:40;;;;;;;;;7.50;7.50;;;;;13.72;100.00;101942.47;5040237;28;45468;-68
2022/09/22 02:42:25;;;;;;;;;12.00;10.75;;;;;13.72;100.00;101949.53;5057339;28;46573;-68
2022/09/22 02:45:22;;;;;;;;;12.75;10.25;;;;;13.70;100.00;101946.88;5058326;28;45268;-68
2022/09/22 02:48:11;;;;;;;;;13.50;10.00;;;;;13.66;100.00;101941.47;5069866;28;45441;-69
2022/09/22 02:50:37;;;;;;;;;11.75;10.50;;;;;13.65;100.00;101945.91;5056224;28;45546;-68
2022/09/22 02:53:14;;;;;;;;;8.25;8.25;;;;;13.60;100.00;101936.97;5073958;28;73348;-69
2022/09/22 02:55:40;;;;;;;;;12.33;9.00;;;;;13.58;100.00;101934.31;5062301;28;45414;-68
2022/09/22 02:58:06;;;;;;;;;11.75;11.00;;;;;13.59;100.00;101937.84;5055437;28;45463;-68
2022/09/22 03:00:31;;;;;;;;;14.00;11.00;;;;;13.57;100.00;101944.88;5073004;28;65196;-69
2022/09/22 03:02:57;;;;;;;;;10.50;8.50;;;;;13.55;100.00;101938.66;5054705;28;46600;-69
2022/09/22 03:05:22;;;;;;;;;10.25;8.50;;;;;13.54;100.00;101932.47;5053468;28;45551;-68
2022/09/22 03:07:48;;;;;;;;;11.50;8.75;;;;;13.55;100.00;101941.31;5066642;28;45511;-69
2022/09/22 03:10:14;;;;;;;;;14.25;10.25;;;;;13.54;100.00;101936.88;5075206;28;67548;-68
2022/09/22 03:12:42;;;;;;;;;9.00;8.50;;;;;13.53;100.00;101935.06;5076121;28;46124;-68
2022/09/22 03:15:12;;;;;;;;;9.75;9.75;;;;;13.49;100.00;101930.59;5059383;28;45521;-68
2022/09/22 03:17:40;;;;;;;;;13.50;10.50;;;;;13.49;100.00;101928.84;5074155;28;45442;-69
2022/09/22 03:20:08;;;;;;;;;11.00;5.75;;;;;13.50;100.00;101932.38;5059074;28;45693;-68
2022/09/22 03:22:33;;;;;;;;;12.75;9.75;;;;;13.47;100.00;101922.59;5071832;28;46098;-69
2022/09/22 03:24:59;;;;;;;;;11.50;10.75;;;;;13.48;100.00;101920.84;5069272;27;45437;-69
2022/09/22 03:27:26;;;;;;;;;11.50;10.00;;;;;13.44;100.00;101916.34;5062814;28;57736;-68
2022/09/22 03:29:52;;;;;;;;;11.75;8.75;;;;;13.42;100.00;101920.72;5073189;28;45588;-68
2022/09/22 03:32:17;;;;;;;;;8.50;8.50;;;;;13.38;100.00;101913.59;5073765;28;46898;-69
2022/09/22 03:34:43;;;;;;;;;12.25;11.25;;;;;13.40;100.00;101919.81;5075606;28;62547;-69
2022/09/22 03:37:08;;;;;;;;;10.75;8.25;;;;;13.36;100.00;101917.09;5054811;28;45470;-68
2022/09/22 03:39:33;;;;;;;;;9.00;9.00;;;;;13.36;100.00;101934.78;5066278;28;60389;-68
2022/09/22 03:41:58;;;;;;;;;9.50;7.25;;;;;13.34;100.00;101923.25;5075041;28;69295;-69
2022/09/22 03:44:25;;;;;;;;;10.75;8.75;;;;;13.32;100.00;101928.56;5065635;28;45300;-68
2022/09/22 03:46:51;;;;;;;;;10.25;10.25;;;;;13.27;100.00;101916.09;5072130;28;45462;-68
2022/09/22 03:49:16;;;;;;;;;7.50;7.50;;;;;13.28;100.00;101917.84;5076227;28;45417;-69
2022/09/22 03:51:41;;;;;;;;;9.25;8.75;;;;;13.25;100.00;101921.34;5055675;28;63655;-68
2022/09/22 03:54:07;;;;;;;;;8.50;8.25;;;;;13.27;100.00;101916.09;5075579;28;65345;-68
2022/09/22 03:56:32;;;;;;;;;11.00;8.50;;;;;13.26;100.00;101920.50;5075406;28;45422;-68
2022/09/22 03:58:57;;;;;;;;;12.50;9.75;;;;;13.23;100.00;101911.59;5066837;28;58557;-69
2022/09/22 04:01:23;;;;;;;;;7.00;7.00;;;;;13.24;100.00;101913.34;5071226;28;46660;-69
2022/09/22 04:03:49;;;;;;;;;11.50;10.25;;;;;13.20;100.00;101900.88;5074607;28;45431;-68
2022/09/22 04:06:14;;;;;;;;;15.50;11.00;;;;;13.19;100.00;101902.63;5056069;28;45561;-69
2022/09/22 04:08:39;;;;;;;;;11.25;8.00;;;;;13.18;100.00;101897.31;5070089;28;45435;-69
2022/09/22 04:11:05;;;;;;;;;8.50;8.50;;;;;13.16;100.00;101899.94;5067538;28;67473;-69
2022/09/22 04:13:31;;;;;;;;;11.00;10.00;;;;;13.16;100.00;101907.00;5072437;28;45374;-68
2022/09/22 04:15:56;;;;;;;;;12.75;10.00;;;;;13.15;100.00;101902.53;5058173;28;45212;-68
2022/09/22 04:18:21;;;;;;;;;11.00;11.00;;;;;13.14;100.00;101908.72;5057004;28;59635;-69
2022/09/22 04:20:47;;;;;;;;;7.50;7.50;;;;;13.14;100.00;101914.03;5058000;28;45444;-69
2022/09/22 04:23:13;;;;;;;;;12.75;10.00;;;;;13.10;100.00;101906.03;5074530;28;45154;-68
2022/09/22 04:25:39;;;;;;;;;12.75;11.25;;;;;13.07;100.00;101905.97;5072443;28;45410;-69
2022/09/22 04:28:05;;;;;;;;;11.25;9.25;;;;;13.07;100.00;101902.44;5058082;28;45621;-69
2022/09/22 04:30:30;;;;;;;;;10.25;9.25;;;;;13.07;100.00;101900.66;5069476;28;45790;-69
2022/09/22 04:32:56;;;;;;;;;12.75;9.00;;;;;13.07;100.00;101897.13;5070103;28;45461;-69
2022/09/22 04:35:21;;;;;;;;;8.50;8.00;;;;;13.06;100.00;101898.88;5072918;27;45424;-69
2022/09/22 04:37:46;;;;;;;;;10.50;8.25;;;;;13.00;100.00;101892.59;5074778;28;55767;-69
2022/09/22 04:40:12;;;;;;;;;10.00;8.75;;;;;12.99;100.00;101894.31;5074344;28;67869;-70
2022/09/22 04:42:38;;;;;;;;;9.75;9.50;;;;;12.98;100.00;101895.19;5073086;28;59593;-69
2022/09/22 04:45:05;;;;;;;;;11.00;11.00;;;;;12.97;100.00;101892.50;5065101;28;45542;-69
2022/09/22 04:47:31;;;;;;;;;9.50;9.50;;;;;12.98;100.00;101900.50;5072536;28;45893;-68
2022/09/22 04:49:56;;;;;;;;;14.25;10.25;;;;;12.93;100.00;101893.31;5069647;28;45456;-69
2022/09/22 04:52:22;;;;;;;;;10.00;8.50;;;;;12.94;100.00;101896.00;5072569;28;45596;-69
2022/09/22 04:54:47;;;;;;;;;12.25;9.75;;;;;12.92;100.00;101887.13;5071169;28;59067;-69
2022/09/22 04:57:13;;;;;;;;;11.75;9.75;;;;;12.92;100.00;101897.72;5071035;28;45727;-70
2022/09/22 04:59:38;;;;;;;;;11.25;10.00;;;;;12.86;100.00;101892.31;5072208;28;68365;-70
2022/09/22 05:02:03;;;;;;;;;10.00;10.00;;;;;12.86;100.00;101900.28;5054554;28;52795;-69
2022/09/22 05:04:29;;;;;;;;;10.75;7.50;;;;;12.85;100.00;101906.44;5076235;28;45440;-69
2022/09/22 05:06:54;;;;;;;;;14.00;10.50;;;;;12.85;100.00;101907.34;5075194;28;45617;-69
2022/09/22 05:09:20;;;;;;;;;12.25;9.25;;;;;12.80;100.00;101895.75;5076417;28;46409;-70
2022/09/22 05:11:47;;;;;;;;;9.75;9.75;;;;;12.82;100.00;101906.38;5059516;28;45523;-69
2022/09/22 05:14:14;;;;;;;;;9.00;9.00;;;;;12.80;100.00;101910.75;5072009;28;45554;-69
2022/09/22 05:16:40;;;;;;;;;13.00;10.00;;;;;12.80;100.00;101913.41;5077300;28;45379;-68
2022/09/22 05:19:08;;;;;;;;;14.50;11.75;;;;;12.77;100.00;101910.69;5054597;28;46243;-69
2022/09/22 05:21:34;;;;;;;;;12.75;10.75;;;;;12.75;100.00;101910.66;5060248;28;45251;-68
2022/09/22 05:23:59;;;;;;;;;10.75;10.75;;;;;12.72;100.00;101915.91;5072056;28;45490;-69
2022/09/22 05:26:25;;;;;;;;;16.25;11.75;;;;;12.70;100.00;101909.69;5075299;28;45399;-69
2022/09/22 05:28:50;;;;;;;;;14.50;10.25;;;;;12.73;100.00;101916.78;5074617;28;45600;-69
2022/09/22 05:31:16;;;;;;;;;14.25;10.00;;;;;12.70;100.00;101912.34;5073827;28;46881;-69
2022/09/22 05:33:41;;;;;;;;;16.25;12.50;;;;;12.69;100.00;101914.97;5074646;28;45823;-69
2022/09/22 05:36:06;;;;;;;;;10.25;10.25;;;;;12.69;100.00;101922.91;5075762;28;45442;-69
2022/09/22 05:38:32;;;;;;;;;7.25;7.25;;;;;12.70;100.00;101922.94;5051797;28;49842;-68
2022/09/22 05:40:57;;;;;;;;;16.75;10.75;;;;;12.70;100.00;101922.03;5074510;28;66658;-68
2022/09/22 05:43:23;;;;;;;;;11.75;9.25;;;;;12.68;100.00;101923.78;5074587;28;45481;-66
2022/09/22 05:45:48;;;;;;;;;12.00;10.50;;;;;12.68;100.00;101919.38;5074350;28;52706;-68
2022/09/22 05:48:14;;;;;;;;;14.25;11.00;;;;;12.67;100.00;101936.09;5064926;28;46445;-67
2022/09/22 05:50:39;;;;;;;;;17.50;12.25;;;;;12.65;100.00;101937.84;5051856;28;47580;-66
2022/09/22 05:53:06;;;;;;;;;10.75;10.75;;;;;12.65;100.00;101936.97;5071762;28;46372;-68
2022/09/22 05:55:32;;;;;;;;;14.75;11.50;;;;;12.62;100.00;101934.22;5054171;28;45772;-68
2022/09/22 05:57:59;;;;;;;;;12.50;12.00;;;;;12.61;100.00;101937.75;5074172;28;46755;-68
2022/09/22 06:00:24;;;;;;;;;14.25;13.25;;;;;12.59;100.00;101938.63;5049606;28;45468;-67
2022/09/22 06:02:50;;;;;;;;;11.50;11.50;;;;;12.59;100.00;101943.03;5067337;28;45591;-67
2022/09/22 06:05:15;;;;;;;;;13.25;10.50;;;;;12.54;100.00;101929.69;5070908;28;60055;-67
2022/09/22 06:07:41;;;;;;;;;12.75;11.00;;;;;12.57;100.00;101937.72;5072966;27;46215;-67
2022/09/22 06:10:06;;;;;;;;;12.00;12.00;;;;;12.53;100.00;101930.56;5068941;28;54262;-66
2022/09/22 06:12:32;;;;;;;;;13.00;11.00;;;;;12.58;100.00;101939.50;5070607;27;45511;-67
2022/09/22 06:14:57;;;;;;;;;11.00;10.00;;;;;12.55;100.00;101923.50;5073793;28;45512;-67
2022/09/22 06:17:23;;;;;;;;;13.00;10.25;;;;;12.59;100.00;101928.03;5072390;28;54820;-67
2022/09/22 06:19:49;;;;;;;;;14.75;11.00;;;;;12.61;100.00;101924.50;5071656;28;64781;-68
2022/09/22 06:22:15;;;;;;;;;12.25;10.50;;;;;12.64;100.00;101921.94;5067231;28;45432;-68
2022/09/22 06:24:41;;;;;;;;;14.00;14.00;;;;;12.67;100.00;101924.63;5071073;28;45554;-67
2022/09/22 06:27:06;;;;;;;;;18.00;14.75;;;;;12.69;100.00;101920.25;5066669;28;45829;-67
2022/09/22 06:29:32;;;;;;;;;13.00;12.25;;;;;12.70;100.00;101914.09;5191280;22;63426;-67
2022/09/22 06:31:57;;;;;;;;;11.50;11.50;;;;;12.74;100.00;101924.78;5049861;28;56648;-67
2022/09/22 06:34:22;;;;;;;;;17.75;13.00;;;;;12.75;100.00;101915.97;5042801;28;45657;-67
2022/09/22 06:36:48;;;;;;;;;14.25;14.25;;;;;12.78;100.00;101918.69;5033916;28;45990;-67
2022/09/22 06:39:13;;;;;;;;;11.50;11.00;;;;;12.78;100.00;101915.13;5055929;28;45463;-67
2022/09/22 06:41:39;;;;;;;;;13.25;11.00;;;;;12.82;100.00;101922.28;5051405;28;45352;-67
2022/09/22 06:44:05;;;;;;;;;18.50;13.25;;;;;12.81;100.00;101920.50;5053533;28;45627;-66
2022/09/22 06:46:32;;;;;;;;;15.25;14.25;;;;;12.82;100.00;101916.97;5056132;28;46878;-68
2022/09/22 06:48:58;;;;;;;;;15.50;14.25;;;;;12.91;100.00;101930.41;5026507;28;46088;-67
2022/09/22 06:51:29;;;;;;;;;13.25;10.75;;;;;12.95;100.00;101931.38;5052148;28;45384;-68
2022/09/22 06:53:54;;;;;;;;;12.75;11.75;;;;;12.97;100.00;101927.88;5034527;28;45452;-67
2022/09/22 06:56:25;;;;;;;;;10.25;8.50;;;;;13.02;100.00;101926.19;5023209;28;46652;-68
2022/09/22 06:58:51;;;;;;;;;9.75;9.75;;;;;13.06;100.00;101928.06;5052896;28;45500;-67
2022/09/22 07:01:17;;;;;;;;;11.00;9.50;;;;;13.12;100.00;101929.91;5056773;28;45443;-68
2022/09/22 07:03:45;;;;;;;;;13.25;10.00;;;;;13.16;100.00;101915.84;5015885;28;45657;-68
2022/09/22 07:06:16;;;;;;;;;10.25;8.75;;;;;13.19;100.00;101917.66;5036989;28;45452;-68
2022/09/22 07:08:42;;;;;;;;;8.00;7.75;;;;;13.22;100.00;101917.75;5056583;28;45458;-67
2022/09/22 07:11:08;;;;;;;;;7.00;7.00;;;;;13.30;100.00;101924.06;5056064;28;45525;-67
2022/09/22 07:13:37;;;;;;;;;10.75;10.00;;;;;13.35;100.00;101927.69;5034205;28;45691;-67
2022/09/22 07:16:08;;;;;;;;;11.75;10.00;;;;;13.38;100.00;101924.22;5044963;28;45909;-67
2022/09/22 07:18:35;;;;;;;;;10.50;7.75;;;;;13.41;100.00;101925.16;5019153;28;45447;-68
2022/09/22 07:21:06;;;;;;;;;11.75;9.75;;;;;13.48;100.00;101926.16;5047428;28;45346;-67
2022/09/22 07:23:35;;;;;;;;;12.00;11.00;;;;;13.51;100.00;101916.47;5045364;28;45520;-68
2022/09/22 07:26:02;;;;;;;;;14.50;10.50;;;;;13.55;100.00;101923.63;5029882;28;46653;-68
2022/09/22 07:28:28;;;;;;;;;14.00;10.33;;;;;13.60;100.00;101927.25;5053195;28;45220;-67
2022/09/22 07:30:57;;;;;;;;;13.50;10.50;;;;;13.65;100.00;101924.66;5048314;28;45521;-67
2022/09/22 07:33:23;;;;;;;;;13.25;12.25;;;;;13.70;100.00;101930.06;5023972;28;45626;-67
2022/09/22 07:36:01;;;;;;;;;12.75;10.50;;;;;13.71;100.00;101913.25;5046633;28;45566;-67
2022/09/22 07:38:32;;;;;;;;;10.50;9.50;;;;;13.75;100.00;101921.28;5048193;28;45551;-68
2022/09/22 07:40:59;;;;;;;;;13.50;9.75;;;;;13.83;100.00;101924.94;5053079;28;45356;-67
2022/09/22 07:43:25;;;;;;;;;10.00;10.00;;;;;13.85;100.00;101923.22;5050181;28;46197;-67
2022/09/22 07:45:54;;;;;;;;;12.25;11.75;;;;;13.94;100.00;101925.09;5056098;28;45412;-68
2022/09/22 07:48:35;;;;;;;;;14.00;10.25;;;;;13.99;100.00;101920.75;5036973;28;45921;-68
2022/09/22 07:51:02;;;;;;;;;13.25;11.00;;;;;14.04;100.00;101915.50;5040899;28;45661;-67
2022/09/22 07:53:27;;;;;;;;;13.00;13.00;;;;;14.09;100.00;101919.13;5056655;28;45254;-67
2022/09/22 07:55:52;;;;;;;;;13.00;10.00;;;;;14.13;100.00;101916.53;5049116;28;46489;-67
2022/09/22 07:58:18;;;;;;;;;14.75;11.75;;;;;14.15;100.00;101919.19;5052630;28;45359;-66
2022/09/22 08:00:43;;;;;;;;;10.00;9.00;;;;;14.23;100.00;101911.34;5049907;28;59332;-67
2022/09/22 08:03:08;;;;;;;;;16.75;9.25;;;;;14.26;100.00;101906.94;5056756;28;45324;-67
2022/09/22 08:05:34;;;;;;;;;14.00;8.00;;;;;14.34;100.00;101930.97;5055812;28;46513;-68
2022/09/22 08:08:01;;;;;;;;;9.25;9.25;;;;;14.37;100.00;101917.72;5056123;28;45392;-67
2022/09/22 08:10:26;;;;;;;;;11.75;10.25;;;;;14.44;100.00;101916.06;5037642;28;45549;-67
2022/09/22 08:12:53;;;;;;;;;12.50;10.00;;;;;14.48;100.00;101902.81;5053286;28;56976;-67
2022/09/22 08:15:21;;;;;;;;;11.75;10.25;;;;;14.53;100.00;101906.44;5036900;28;46492;-68
2022/09/22 08:17:47;;;;;;;;;12.00;9.00;;;;;14.59;100.00;101909.16;5049780;28;45205;-67
2022/09/22 08:20:12;;;;;;;;;14.00;12.00;;;;;14.64;100.00;101914.53;5038407;28;45266;-67
2022/09/22 08:22:37;;;;;;;;;14.33;10.00;;;;;14.67;100.00;101910.16;5048085;28;45512;-68
2022/09/22 08:25:03;;;;;;;;;9.00;9.00;;;;;14.75;100.00;101909.34;5037726;28;45522;-68
2022/09/22 08:27:29;;;;;;;;;7.00;7.00;;;;;14.78;100.00;101899.63;5054807;28;45440;-67
2022/09/22 08:29:54;;;;;;;;;10.00;8.00;;;;;14.86;100.00;101908.59;5053820;28;45396;-67
2022/09/22 08:32:19;;;;;;;;;10.33;9.00;;;;;14.93;100.00;101909.56;5049789;28;61356;-67
2022/09/22 08:34:45;;;;;;;;;10.33;8.67;;;;;14.97;100.00;101905.13;5051622;28;63100;-67
2022/09/22 08:37:12;;;;;;;;;12.33;10.33;;;;;15.00;100.00;101900.75;5048558;28;45417;-67
2022/09/22 08:39:38;;;;;;;;;11.67;11.67;;;;;15.05;100.00;101903.47;5057487;28;45450;-68
2022/09/22 08:42:17;;;;;;;;;11.00;10.75;;;;;15.09;100.00;101906.16;5055316;28;45523;-68
2022/09/22 08:45:00;;;;;;;;;7.33;7.33;;;;;15.13;100.00;101901.78;5024413;28;48801;-67
2022/09/22 08:53:31;;;;;;;;;10.33;10.33;;;;;15.31;100.00;101907.25;5053113;28;45456;-68
2022/09/22 08:56:28;;;;;;;;;7.00;7.00;;;;;15.34;100.00;101901.97;5038788;28;46500;-67
2022/09/22 08:59:13;;;;;;;;;13.00;8.00;;;;;15.44;100.00;101908.22;5049383;28;46201;-68
2022/09/22 09:02:06;;;;;;;;;11.33;8.67;;;;;15.47;100.00;101900.28;5051592;28;45299;-68
2022/09/22 09:05:09;;;;;;;;;12.00;9.00;;;;;15.54;100.00;101910.09;5041291;28;45491;-67
2022/09/22 09:07:56;;;;;;;;;10.67;9.33;;;;;15.60;100.00;101911.91;5045429;28;46786;-67
2022/09/22 09:10:28;;;;;;;;;10.67;8.33;;;;;15.63;100.00;101912.88;5051274;28;45340;-68
2022/09/22 09:13:02;;;;;;;;;7.67;7.67;;;;;15.70;100.00;101905.81;5055573;28;45408;-68
2022/09/22 09:15:38;;;;;;;;;13.00;11.00;;;;;15.73;100.00;101903.19;5036114;28;45449;-68
2022/09/22 09:18:12;;;;;;;;;9.67;9.33;;;;;15.77;100.00;101899.66;5040851;28;46200;-67
2022/09/22 09:20:43;;;;;;;;;11.00;8.67;;;;;15.83;100.00;101888.16;5037635;28;45225;-68
2022/09/22 09:23:16;;;;;;;;;14.33;10.00;;;;;15.91;100.00;101895.31;5041016;28;45433;-67
2022/09/22 09:25:43;;;;;;;;;7.67;7.67;;;;;15.97;100.00;101897.09;5039992;28;45604;-68
2022/09/22 09:28:14;;;;;;;;;12.67;9.33;;;;;16.03;100.00;101897.13;5053687;28;46363;-66
2022/09/22 09:30:49;;;;;;;;;11.67;9.00;;;;;16.08;100.00;101891.84;5054658;28;45446;-68
2022/09/22 09:33:50;;;;;;;;;12.67;9.00;;;;;16.18;100.00;101888.34;5053250;28;45262;-66
2022/09/22 09:36:21;;;;;;;;;11.00;11.00;;;;;16.22;100.00;101892.81;5004293;28;45342;-67
2022/09/22 09:38:55;;;;;;;;;12.33;8.00;;;;;16.28;100.00;101884.84;5032416;28;46484;-68
2022/09/22 09:41:40;;;;;;;;;9.00;9.00;;;;;16.37;100.00;101881.31;5039581;28;45555;-68
2022/09/22 09:44:06;;;;;;;;;9.33;8.67;;;;;16.46;100.00;101886.72;5056686;28;46579;-68
2022/09/22 09:46:43;;;;;;;;;10.33;8.00;;;;;16.54;100.00;101882.28;5056174;28;59757;-67
2022/09/22 09:49:17;;;;;;;;;8.33;8.33;;;;;16.59;99.85;101882.28;5038179;28;47900;-67
2022/09/22 09:51:49;;;;;;;;;7.67;7.00;;;;;16.63;99.70;101876.09;5052275;28;45494;-68
2022/09/22 09:54:16;;;;;;;;;10.33;9.00;;;;;16.69;99.24;101878.78;5036870;28;45379;-68
2022/09/22 09:57:06;;;;;;;;;10.33;9.00;;;;;16.77;99.14;101877.03;5036907;28;45381;-68
2022/09/22 10:02:38;;;;;;;;;8.67;8.00;;;;;16.87;97.95;101861.94;5031195;28;45443;-67
2022/09/22 10:05:21;;;;;;;;;6.67;5.67;;;;;16.96;97.31;101852.16;5040338;28;45328;-68
2022/09/22 10:08:00;;;;;;;;;8.67;8.00;;;;;17.02;96.71;101857.50;5038793;28;45218;-68
2022/09/22 10:10:29;;;;;;;;;7.00;7.00;;;;;17.11;95.69;101861.97;5052452;28;45791;-69
2022/09/22 10:13:25;;;;;;;;;6.33;5.33;;;;;17.12;94.87;101845.06;5057551;28;45296;-67
2022/09/22 10:16:16;;;;;;;;;8.33;6.33;;;;;17.25;94.45;101848.59;5048625;28;45344;-67
2022/09/22 10:18:42;;;;;;;;;6.00;3.33;;;;;17.31;94.26;101845.97;5048271;28;45427;-68
2022/09/22 10:21:19;;;;;;;;;4.67;2.33;;;;;17.38;92.97;101841.50;5050961;28;68090;-68
2022/09/22 10:23:52;;;;;;;;;3.00;3.00;;;;;17.42;91.99;101832.59;5055250;28;45510;-67
2022/09/22 10:26:30;;;;;;;;;6.00;3.00;;;;;17.55;91.70;101839.69;5051894;28;45498;-68
2022/09/22 10:29:17;;;;;;;;;4.33;3.33;;;;;17.60;90.95;101835.25;5054391;28;45461;-68
2022/09/22 10:32:02;;;;;;;;;3.00;3.00;;;;;17.72;91.00;101829.88;5055104;28;46720;-68
2022/09/22 10:34:34;;;;;;;;;3.00;3.00;;;;;17.81;90.40;101831.66;5052754;28;45339;-67
2022/09/22 10:37:00;;;;;;;;;6.00;6.00;;;;;17.84;89.91;101818.28;5042406;28;45526;-67
2022/09/22 10:39:38;;;;;;;;;4.00;3.00;;;;;17.94;88.57;101814.69;5035547;28;45519;-68
2022/09/22 10:42:06;;;;;;;;;4.00;4.00;;;;;18.04;88.24;101818.22;5050313;28;45881;-68
2022/09/22 10:44:32;;;;;;;;;4.00;3.00;;;;;18.14;87.86;101813.72;5025614;28;45478;-68
2022/09/22 10:47:22;;;;;;;;;5.00;2.33;;;;;18.23;85.42;101814.56;5057505;28;45225;-67
2022/09/22 10:49:54;;;;;;;;;1.00;1.00;;;;;18.33;85.06;101812.75;5052330;28;46141;-68
2022/09/22 10:52:28;;;;;;;;;2.00;2.00;;;;;18.44;84.35;101813.56;5054628;28;46534;-67
2022/09/22 10:55:06;;;;;;;;;2.00;2.00;;;;;18.53;84.12;101808.13;5042358;28;45341;-68
2022/09/22 10:57:41;;;;;;;;;3.00;3.00;;;;;18.58;83.61;101803.66;5057480;28;45534;-67
2022/09/22 11:00:19;;;;;;;;;2.33;2.33;;;;;18.68;83.14;101808.97;5055898;28;45303;-68
2022/09/22 11:03:16;;;;;;;;;7.67;6.67;;;;;18.74;83.90;101799.13;5053602;28;46790;-68
2022/09/22 11:14:52;;;;;;;;;2.00;2.00;;;;;19.03;80.58;101790.88;5056404;28;45179;-68
2022/09/22 11:17:37;;;;;;;;;2.67;2.67;;;;;19.09;80.07;101787.25;5057214;28;45261;-68
2022/09/22 11:20:21;;;;;;;;;2.00;2.00;;;;;19.10;79.95;101763.13;5057234;28;45599;-68
2022/09/22 11:23:24;;;;;;;;;3.00;3.00;;;;;19.20;78.55;101785.38;5053216;28;45450;-69
2022/09/22 11:26:11;;;;;;;;;2.67;2.67;;;;;19.26;77.96;101774.59;5052335;28;47556;-68
2022/09/22 11:28:50;;;;;;;;;2.00;2.00;;;;;19.31;76.17;101771.88;5048596;28;45491;-69
2022/09/22 11:31:44;;;;;;;;;2.00;2.00;;;;;19.37;76.38;101772.69;5049498;28;45530;-67
2022/09/22 11:34:34;;;;;;;;;3.67;2.00;;;;;19.45;76.26;101771.75;5052657;28;45435;-68
2022/09/22 11:37:26;;;;;;;;;1.67;1.67;;;;;19.49;76.15;101768.09;5053058;28;46759;-68
2022/09/22 11:40:23;;;;;;;;;2.00;1.67;;;;;19.54;75.61;101776.97;5044675;28;45428;-69
2022/09/22 11:42:59;;;;;;;;;2.33;1.67;;;;;19.58;76.26;101768.00;5038202;28;45463;-67
2022/09/22 11:46:00;;;;;;;;;3.00;3.00;;;;;19.64;75.91;101765.28;5049399;28;45403;-68
2022/09/22 11:48:25;;;;;;;;;2.00;2.00;;;;;19.70;74.14;101764.34;5055148;28;46456;-68